Time;durP1;ratioP1;P1;durP2;ratioP2;P2;SDS_P1;SDS_P2;PMS_P1;PMS_P2;Temp;Humidity;BMP_temperature;BMP_pressure;BME280_temperature;BME280_humidity;BME280_pressure;Samples;Min_cycle;Max_cycle;Signal;HPM_P1;HPM_P2
2023/03/09 00:02:09;;;;;;;21.40;15.43;;;8.90;47.80;;;;;;5014350;28;20244;-57
2023/03/09 00:04:36;;;;;;;26.25;17.77;;;8.90;47.70;;;;;;5014027;28;20209;-56
2023/03/09 00:07:02;;;;;;;20.65;14.90;;;8.90;47.70;;;;;;5013919;28;20173;-53
2023/03/09 00:09:27;;;;;;;19.15;14.40;;;8.90;47.70;;;;;;5014069;28;20174;-53
2023/03/09 00:11:53;;;;;;;20.20;14.30;;;8.90;47.60;;;;;;5014127;28;20205;-55
2023/03/09 00:14:24;;;;;;;22.80;14.83;;;8.90;47.70;;;;;;5013619;28;20687;-53
2023/03/09 00:16:50;;;;;;;19.73;14.45;;;8.90;47.70;;;;;;5013913;28;20181;-54
2023/03/09 00:19:20;;;;;;;20.05;13.32;;;8.90;47.70;;;;;;5013717;28;20660;-55
2023/03/09 00:21:51;;;;;;;24.45;15.73;;;8.90;47.80;;;;;;5013748;28;20202;-55
2023/03/09 00:24:19;;;;;;;23.05;15.07;;;8.90;47.80;;;;;;5013354;28;20682;-54
2023/03/09 00:26:54;;;;;;;22.90;15.40;;;8.90;47.80;;;;;;5013648;28;20181;-53
2023/03/09 00:29:20;;;;;;;22.80;15.60;;;8.90;48.50;;;;;;5013588;28;20219;-55
2023/03/09 00:31:45;;;;;;;22.97;13.97;;;8.90;47.80;;;;;;5013490;28;20265;-55
2023/03/09 00:34:15;;;;;;;19.70;13.53;;;8.90;47.80;;;;;;5013135;28;20242;-54
2023/03/09 00:36:41;;;;;;;19.13;13.80;;;8.90;47.80;;;;;;5013443;28;20179;-56
2023/03/09 00:39:09;;;;;;;21.60;15.00;;;8.90;47.80;;;;;;5012791;28;20181;-52
2023/03/09 00:41:35;;;;;;;19.83;13.00;;;8.90;47.80;;;;;;5013186;28;20972;-54
2023/03/09 00:44:02;;;;;;;20.83;12.73;;;8.90;47.80;;;;;;5013324;28;20209;-56
2023/03/09 00:46:29;;;;;;;22.92;13.45;;;8.90;47.90;;;;;;5012836;28;20197;-56
2023/03/09 00:48:54;;;;;;;20.70;12.48;;;8.90;48.00;;;;;;5012644;28;20251;-53
2023/03/09 00:51:20;;;;;;;16.70;13.00;;;8.80;47.80;;;;;;5012480;28;20208;-56
2023/03/09 00:53:46;;;;;;;19.77;13.60;;;8.90;47.90;;;;;;5012089;28;20198;-53
2023/03/09 00:56:20;;;;;;;19.97;14.00;;;8.90;47.90;;;;;;5012307;28;20412;-53
2023/03/09 00:58:46;;;;;;;18.15;12.05;;;8.90;47.90;;;;;;5012321;28;20184;-55
2023/03/09 01:01:14;;;;;;;19.08;12.38;;;8.90;48.00;;;;;;5011995;28;20252;-53
2023/03/09 01:03:40;;;;;;;15.77;11.07;;;8.80;48.00;;;;;;5012071;28;20200;-55
2023/03/09 01:06:07;;;;;;;18.55;12.10;;;8.80;48.10;;;;;;5012148;28;20171;-53
2023/03/09 01:08:34;;;;;;;17.20;13.13;;;8.80;48.10;;;;;;5012311;28;20177;-52
2023/03/09 01:11:00;;;;;;;16.25;11.27;;;8.80;48.10;;;;;;5011944;28;20591;-55
2023/03/09 01:13:26;;;;;;;17.02;11.60;;;8.90;48.10;;;;;;5011757;28;20249;-57
2023/03/09 01:15:52;;;;;;;16.83;11.05;;;8.90;48.10;;;;;;5011859;28;20247;-52
2023/03/09 01:18:18;;;;;;;18.27;12.37;;;8.90;48.10;;;;;;5012237;28;20204;-53
2023/03/09 01:20:44;;;;;;;15.40;11.73;;;8.90;48.00;;;;;;5011820;28;20456;-53
2023/03/09 01:23:09;;;;;;;14.03;9.60;;;8.90;48.00;;;;;;5011685;28;20478;-54
2023/03/09 01:25:35;;;;;;;14.23;9.90;;;8.90;48.00;;;;;;5011887;28;20273;-54
2023/03/09 01:28:01;;;;;;;14.00;11.37;;;8.90;48.00;;;;;;5011861;28;20181;-53
2023/03/09 01:30:27;;;;;;;16.23;11.03;;;8.90;48.00;;;;;;5011716;28;20777;-53
2023/03/09 01:32:53;;;;;;;19.53;13.70;;;8.90;48.00;;;;;;5011533;28;20182;-55
2023/03/09 01:35:19;;;;;;;16.58;11.93;;;8.90;48.10;;;;;;5011579;28;20205;-52
2023/03/09 01:37:45;;;;;;;17.17;12.50;;;8.90;48.10;;;;;;5011962;28;20193;-51
2023/03/09 01:40:17;;;;;;;16.90;12.20;;;8.90;48.10;;;;;;5011764;28;20460;-55
2023/03/09 01:42:42;;;;;;;15.10;10.57;;;8.90;48.00;;;;;;5011595;28;20252;-52
2023/03/09 01:47:51;;;;;;;13.23;9.65;;;8.90;48.10;;;;;;5069408;28;20545;-55
2023/03/09 01:50:20;;;;;;;13.25;10.18;;;8.90;48.00;;;;;;5068055;28;20594;-53
2023/03/09 01:52:49;;;;;;;16.70;11.15;;;8.90;48.00;;;;;;5069196;28;20181;-53
2023/03/09 01:55:23;;;;;;;15.60;9.57;;;9.00;48.10;;;;;;5069149;28;20182;-56
2023/03/09 01:57:58;;;;;;;17.55;10.65;;;8.90;48.00;;;;;;5069280;28;20176;-53
2023/03/09 02:00:25;;;;;;;15.15;9.57;;;9.00;48.00;;;;;;5069324;28;20180;-54
2023/03/09 02:02:56;;;;;;;16.83;10.65;;;9.00;48.00;;;;;;5069103;28;20232;-53
2023/03/09 02:05:28;;;;;;;13.35;8.65;;;9.00;47.90;;;;;;5069081;28;20327;-56
2023/03/09 02:07:55;;;;;;;14.48;10.23;;;9.00;48.00;;;;;;5069251;28;20180;-56
2023/03/09 02:10:36;;;;;;;15.65;11.32;;;9.00;47.90;;;;;;5069021;28;20200;-53
2023/03/09 02:13:08;;;;;;;14.68;10.43;;;9.00;48.00;;;;;;5068711;28;20167;-56
2023/03/09 02:15:34;;;;;;;13.00;9.05;;;9.00;48.00;;;;;;5068987;28;20171;-56
2023/03/09 02:18:00;;;;;;;12.53;9.10;;;9.00;48.00;;;;;;5068831;28;20218;-53
2023/03/09 02:20:35;;;;;;;16.50;9.10;;;9.00;48.00;;;;;;5068703;28;20405;-54
2023/03/09 02:23:03;;;;;;;12.75;9.57;;;9.00;48.00;;;;;;5068426;28;20198;-56
2023/03/09 02:25:37;;;;;;;16.60;10.50;;;8.90;48.00;;;;;;5068875;28;20176;-54
2023/03/09 02:28:05;;;;;;;13.15;8.75;;;8.90;48.00;;;;;;5068728;28;20300;-53
2023/03/09 02:30:33;;;;;;;13.23;9.15;;;8.90;48.10;;;;;;5068632;28;20662;-55
2023/03/09 02:33:26;;;;;;;14.40;9.95;;;8.90;48.00;;;;;;5068230;28;20168;-52
2023/03/09 02:35:57;;;;;;;13.70;10.32;;;9.00;48.00;;;;;;5068179;28;20187;-54
2023/03/09 02:38:23;;;;;;;12.43;10.57;;;8.90;48.30;;;;;;5068452;28;20188;-55
2023/03/09 02:40:50;;;;;;;14.48;9.63;;;8.90;48.10;;;;;;5068403;28;20540;-53
2023/03/09 02:43:24;;;;;;;11.52;8.27;;;9.00;48.00;;;;;;5068030;28;20183;-54
2023/03/09 02:45:51;;;;;;;13.10;10.30;;;9.00;48.00;;;;;;5068307;28;20211;-57
2023/03/09 02:48:16;;;;;;;13.80;9.60;;;9.00;48.00;;;;;;5068275;28;20215;-54
2023/03/09 02:50:43;;;;;;;14.33;9.63;;;9.00;48.00;;;;;;5068157;28;20177;-54
2023/03/09 02:53:09;;;;;;;12.82;9.05;;;9.00;48.00;;;;;;5067847;28;20418;-56
2023/03/09 02:55:35;;;;;;;12.65;8.02;;;9.00;48.00;;;;;;5068022;28;20579;-53
2023/03/09 02:58:01;;;;;;;13.37;10.27;;;9.00;48.00;;;;;;5061266;28;20168;-56
2023/03/09 03:00:27;;;;;;;15.27;10.87;;;9.00;48.10;;;;;;5054822;28;20765;-57
2023/03/09 03:02:53;;;;;;;13.60;9.70;;;9.00;48.00;;;;;;5054675;28;20433;-54
2023/03/09 03:05:19;;;;;;;14.60;10.53;;;9.00;48.00;;;;;;5054728;28;20432;-55
2023/03/09 03:07:45;;;;;;;16.73;10.48;;;9.00;48.00;;;;;;5054593;28;20447;-55
2023/03/09 03:10:12;;;;;;;15.60;11.37;;;9.00;48.00;;;;;;5054705;28;20644;-53
2023/03/09 03:12:38;;;;;;;15.90;10.18;;;9.00;48.00;;;;;;5054472;28;20904;-53
2023/03/09 03:15:05;;;;;;;14.43;10.10;;;9.00;48.00;;;;;;5054309;28;20203;-56
2023/03/09 03:17:30;;;;;;;15.52;10.10;;;9.00;48.70;;;;;;5054715;28;20415;-55
2023/03/09 03:19:56;;;;;;;17.57;11.90;;;9.00;47.90;;;;;;5054588;28;20184;-53
2023/03/09 03:22:22;;;;;;;17.43;10.70;;;9.00;47.90;;;;;;5054326;28;20183;-53
2023/03/09 03:24:48;;;;;;;18.40;12.20;;;9.00;47.80;;;;;;5054080;28;20199;-54
2023/03/09 03:27:14;;;;;;;16.80;11.90;;;9.10;48.10;;;;;;5054377;28;20805;-54
2023/03/09 03:29:39;;;;;;;15.10;11.30;;;9.00;48.30;;;;;;5054276;28;20818;-54
2023/03/09 03:32:06;;;;;;;18.23;12.60;;;9.00;47.80;;;;;;5054262;28;20249;-56
2023/03/09 03:34:31;;;;;;;16.83;11.98;;;9.00;47.90;;;;;;5053908;28;20548;-54
2023/03/09 03:36:57;;;;;;;18.07;12.80;;;9.00;48.00;;;;;;5054042;28;20176;-53
2023/03/09 03:39:23;;;;;;;16.67;10.07;;;9.00;47.90;;;;;;5054013;28;20183;-55
2023/03/09 03:41:49;;;;;;;25.07;12.47;;;9.00;47.90;;;;;;5054015;28;20196;-53
2023/03/09 03:44:14;;;;;;;16.83;11.93;;;9.00;47.90;;;;;;5053690;28;20224;-54
2023/03/09 03:46:40;;;;;;;20.57;11.97;;;9.00;47.90;;;;;;5053750;28;20235;-56
2023/03/09 03:49:06;;;;;;;18.17;12.33;;;8.90;48.00;;;;;;5054115;28;20173;-52
2023/03/09 03:51:32;;;;;;;20.90;13.00;;;8.90;48.60;;;;;;5053737;28;20165;-52
2023/03/09 03:53:57;;;;;;;20.37;12.27;;;8.90;48.00;;;;;;5053578;28;20208;-55
2023/03/09 03:56:23;;;;;;;17.70;12.00;;;8.90;48.00;;;;;;5053624;28;20407;-54
2023/03/09 03:58:49;;;;;;;22.93;14.73;;;8.90;48.00;;;;;;5053711;28;20415;-54
2023/03/09 04:01:15;;;;;;;18.97;13.30;;;8.90;47.90;;;;;;5053867;28;20180;-54
2023/03/09 04:03:40;;;;;;;21.97;12.37;;;8.80;47.80;;;;;;5053363;28;20753;-56
2023/03/09 04:06:06;;;;;;;16.20;11.30;;;8.80;48.00;;;;;;5053510;28;20195;-53
2023/03/09 04:08:33;;;;;;;17.70;13.20;;;8.70;48.00;;;;;;5053416;28;20696;-54
2023/03/09 04:11:04;;;;;;;20.60;13.15;;;8.70;48.10;;;;;;5052438;28;20637;-54
2023/03/09 04:13:29;;;;;;;18.98;13.02;;;8.70;48.20;;;;;;5053222;28;20665;-55
2023/03/09 04:15:55;;;;;;;17.93;11.53;;;8.70;48.20;;;;;;5053355;28;20189;-54
2023/03/09 04:18:21;;;;;;;18.40;12.13;;;8.70;48.20;;;;;;5053327;28;20177;-55
2023/03/09 04:20:46;;;;;;;17.80;11.00;;;8.70;48.10;;;;;;5053251;28;20178;-52
2023/03/09 04:23:12;;;;;;;17.17;10.57;;;8.70;48.10;;;;;;5052946;28;20182;-56
2023/03/09 04:25:38;;;;;;;14.13;10.80;;;8.60;48.00;;;;;;5053008;28;20252;-53
2023/03/09 04:28:04;;;;;;;15.80;11.30;;;8.70;48.10;;;;;;5053398;28;20174;-53
2023/03/09 04:30:30;;;;;;;16.87;11.23;;;8.60;48.00;;;;;;5053338;28;20423;-53
2023/03/09 04:32:56;;;;;;;15.45;11.20;;;8.60;48.00;;;;;;5052809;28;20414;-55
2023/03/09 04:35:22;;;;;;;16.50;10.53;;;8.60;48.10;;;;;;5052904;28;20197;-54
2023/03/09 04:37:47;;;;;;;15.57;10.57;;;8.60;48.20;;;;;;5052921;28;20414;-54
2023/03/09 04:40:14;;;;;;;15.77;10.60;;;8.60;48.10;;;;;;5052772;28;20834;-53
2023/03/09 04:42:40;;;;;;;13.00;9.48;;;8.60;48.10;;;;;;5052769;28;20411;-55
2023/03/09 04:45:07;;;;;;;14.60;9.82;;;8.50;48.20;;;;;;5052621;28;20679;-53
2023/03/09 04:47:33;;;;;;;15.05;10.40;;;8.50;48.20;;;;;;5052687;28;20752;-53
2023/03/09 04:49:58;;;;;;;17.07;9.80;;;8.50;48.40;;;;;;5052682;28;20663;-55
2023/03/09 04:52:24;;;;;;;14.10;9.90;;;8.50;48.30;;;;;;5052949;28;20404;-55
2023/03/09 04:54:50;;;;;;;15.23;10.77;;;8.50;48.30;;;;;;5052525;28;20204;-53
2023/03/09 04:57:17;;;;;;;16.17;9.87;;;8.60;48.30;;;;;;5052631;28;20162;-53
2023/03/09 04:59:43;;;;;;;12.75;9.05;;;8.50;48.20;;;;;;5052729;28;20418;-55
2023/03/09 05:02:08;;;;;;;15.73;8.97;;;8.60;48.20;;;;;;5052902;28;20188;-56
2023/03/09 05:04:36;;;;;;;15.23;10.60;;;8.60;48.20;;;;;;5052141;28;20196;-53
2023/03/09 05:07:02;;;;;;;15.93;10.65;;;8.50;48.20;;;;;;5052296;28;20210;-53
2023/03/09 05:09:27;;;;;;;16.80;10.90;;;8.50;48.30;;;;;;5052385;28;20249;-55
2023/03/09 05:11:53;;;;;;;14.40;10.70;;;8.50;48.40;;;;;;5052484;28;20503;-53
2023/03/09 05:14:19;;;;;;;16.10;9.37;;;8.50;48.40;;;;;;5052321;28;20607;-56
2023/03/09 05:16:48;;;;;;;15.55;11.60;;;8.50;48.50;;;;;;5052648;28;20176;-56
2023/03/09 05:19:14;;;;;;;15.30;9.85;;;8.60;48.50;;;;;;5052427;28;20173;-54
2023/03/09 05:21:39;;;;;;;16.87;10.80;;;8.60;48.50;;;;;;5052100;28;20191;-56
2023/03/09 05:24:05;;;;;;;13.27;8.90;;;8.50;48.40;;;;;;5051862;28;20549;-55
2023/03/09 05:26:31;;;;;;;15.25;10.70;;;8.60;48.60;;;;;;5052053;28;20229;-55
2023/03/09 05:28:57;;;;;;;14.27;9.07;;;8.50;48.50;;;;;;5052065;28;20205;-53
2023/03/09 05:31:23;;;;;;;13.57;9.03;;;8.60;48.60;;;;;;5052318;28;20260;-56
2023/03/09 05:33:48;;;;;;;14.60;9.70;;;8.60;48.60;;;;;;5052032;28;20743;-56
2023/03/09 05:36:20;;;;;;;12.87;8.60;;;8.60;48.50;;;;;;5051948;28;20576;-54
2023/03/09 05:38:47;;;;;;;17.27;11.45;;;8.60;48.40;;;;;;5051996;28;20177;-55
2023/03/09 05:41:12;;;;;;;18.17;12.55;;;8.60;48.30;;;;;;5051926;28;20803;-53
2023/03/09 05:43:41;;;;;;;19.20;11.70;;;8.70;48.40;;;;;;5050390;28;20299;-56
2023/03/09 05:46:11;;;;;;;17.80;11.50;;;8.60;48.40;;;;;;5051797;28;20218;-58
2023/03/09 05:48:38;;;;;;;15.90;10.82;;;8.60;48.50;;;;;;5052168;28;20263;-54
2023/03/09 05:51:04;;;;;;;14.10;10.25;;;8.50;48.70;;;;;;5052023;28;20173;-54
2023/03/09 05:53:31;;;;;;;18.15;12.15;;;8.50;49.00;;;;;;5051556;28;20199;-58
2023/03/09 05:55:58;;;;;;;14.30;10.75;;;8.50;49.10;;;;;;5051987;28;20207;-52
2023/03/09 05:58:24;;;;;;;15.95;10.05;;;8.50;49.10;;;;;;5051824;28;20231;-53
2023/03/09 06:00:52;;;;;;;16.83;11.05;;;8.50;49.10;;;;;;5051785;28;20173;-57
2023/03/09 06:03:19;;;;;;;16.98;10.60;;;8.60;49.00;;;;;;5051362;28;20176;-54
2023/03/09 06:05:45;;;;;;;17.38;10.60;;;8.70;49.00;;;;;;5051593;28;20257;-54
2023/03/09 06:08:11;;;;;;;13.70;10.45;;;8.70;49.00;;;;;;5051767;28;20199;-57
2023/03/09 06:10:37;;;;;;;17.65;11.18;;;8.70;49.00;;;;;;5051665;28;20177;-53
2023/03/09 06:13:03;;;;;;;16.98;11.68;;;8.70;48.90;;;;;;5051448;28;20791;-53
2023/03/09 06:15:29;;;;;;;14.20;10.32;;;8.70;48.70;;;;;;5051614;28;20172;-59
2023/03/09 06:17:55;;;;;;;15.63;10.20;;;8.70;48.70;;;;;;5051576;28;20185;-54
2023/03/09 06:20:21;;;;;;;15.87;11.00;;;8.70;49.00;;;;;;5051640;28;20407;-57
2023/03/09 06:22:47;;;;;;;18.65;11.82;;;8.60;49.00;;;;;;5051496;28;20174;-56
2023/03/09 06:25:14;;;;;;;20.70;13.83;;;8.60;49.10;;;;;;5051405;28;20253;-52
2023/03/09 06:27:39;;;;;;;21.30;14.70;;;8.60;49.20;;;;;;5051570;28;20879;-54
2023/03/09 06:30:06;;;;;;;21.37;14.30;;;8.60;49.30;;;;;;5051569;28;20162;-55
2023/03/09 06:32:33;;;;;;;20.75;12.13;;;8.60;49.40;;;;;;5051695;28;20287;-52
2023/03/09 06:34:58;;;;;;;23.17;12.65;;;8.60;49.40;;;;;;5055282;28;20266;-54
2023/03/09 06:37:24;;;;;;;13.67;10.20;;;8.60;49.40;;;;;;5055229;28;20729;-57
2023/03/09 06:39:50;;;;;;;15.77;11.20;;;8.60;49.50;;;;;;5055200;28;20180;-53
2023/03/09 06:42:16;;;;;;;16.60;10.70;;;8.50;49.50;;;;;;5055345;28;21031;-54
2023/03/09 06:44:42;;;;;;;16.75;12.30;;;8.50;49.70;;;;;;5054812;28;20674;-57
2023/03/09 06:47:12;;;;;;;15.88;11.93;;;8.50;49.80;;;;;;5054738;28;20223;-54
2023/03/09 06:49:38;;;;;;;16.25;12.93;;;8.50;49.90;;;;;;5054967;28;20255;-56
2023/03/09 06:52:05;;;;;;;14.95;11.15;;;8.50;49.90;;;;;;5053773;28;20193;-57
2023/03/09 06:54:30;;;;;;;16.92;12.02;;;8.60;49.90;;;;;;5054669;28;20799;-53
2023/03/09 06:56:56;;;;;;;14.63;11.13;;;8.60;49.90;;;;;;5054891;28;20168;-54
2023/03/09 06:59:22;;;;;;;12.40;9.70;;;8.60;50.10;;;;;;5054911;28;20411;-55
2023/03/09 07:01:48;;;;;;;16.53;10.17;;;8.60;50.00;;;;;;5054634;28;20208;-53
2023/03/09 07:04:13;;;;;;;17.83;10.30;;;8.60;50.10;;;;;;5054511;28;20215;-56
2023/03/09 07:06:39;;;;;;;18.57;11.70;;;8.60;50.00;;;;;;5054631;28;20707;-53
2023/03/09 07:09:05;;;;;;;19.10;11.70;;;8.50;50.30;;;;;;5054740;28;20852;-54
2023/03/09 07:11:30;;;;;;;20.30;14.03;;;8.50;50.30;;;;;;5054534;28;20177;-58
2023/03/09 07:13:56;;;;;;;17.03;11.77;;;8.50;50.40;;;;;;5054293;28;20191;-58
2023/03/09 07:16:22;;;;;;;14.60;10.37;;;8.60;50.30;;;;;;5054464;28;20204;-52
2023/03/09 07:18:48;;;;;;;22.80;13.77;;;8.50;50.30;;;;;;5054673;28;20260;-56
2023/03/09 07:21:14;;;;;;;15.52;10.52;;;8.60;50.40;;;;;;5054395;28;20181;-56
2023/03/09 07:23:40;;;;;;;14.27;8.90;;;8.60;50.30;;;;;;5054345;28;20254;-53
2023/03/09 07:26:07;;;;;;;12.23;8.30;;;8.60;50.30;;;;;;5054224;28;20807;-55
2023/03/09 07:28:33;;;;;;;13.50;10.00;;;8.60;50.30;;;;;;5054372;28;20181;-56
2023/03/09 07:31:09;;;;;;;11.07;9.18;;;8.60;50.30;;;;;;5053296;28;20180;-54
2023/03/09 07:33:35;;;;;;;9.68;6.72;;;8.60;50.10;;;;;;5054129;28;20188;-54
2023/03/09 07:36:08;;;;;;;6.78;6.05;;;8.50;50.20;;;;;;5054378;28;20752;-56
2023/03/09 07:38:34;;;;;;;8.82;6.15;;;8.50;50.20;;;;;;5054126;28;20642;-54
2023/03/09 07:41:01;;;;;;;8.20;5.75;;;8.40;50.20;;;;;;5054106;28;20165;-54
2023/03/09 07:43:27;;;;;;;7.43;5.05;;;8.40;50.20;;;;;;5053547;28;20280;-57
2023/03/09 07:45:53;;;;;;;9.60;4.70;;;8.30;50.30;;;;;;5052419;28;20239;-56
2023/03/09 07:48:18;;;;;;;8.43;5.33;;;8.30;50.30;;;;;;5054212;28;20157;-53
2023/03/09 07:50:45;;;;;;;7.80;5.03;;;8.20;50.30;;;;;;5053820;28;20469;-55
2023/03/09 07:53:11;;;;;;;5.47;4.32;;;8.20;50.40;;;;;;5053545;28;20469;-56
2023/03/09 07:55:37;;;;;;;5.53;4.10;;;8.30;50.40;;;;;;5053995;28;20203;-53
2023/03/09 07:58:04;;;;;;;6.82;4.95;;;8.30;50.40;;;;;;5053634;28;20404;-56
2023/03/09 08:00:31;;;;;;;4.80;4.07;;;8.20;50.00;;;;;;5053621;28;20166;-53
2023/03/09 08:02:58;;;;;;;5.75;4.72;;;8.10;50.10;;;;;;5053517;28;20231;-58
2023/03/09 08:05:23;;;;;;;6.93;5.40;;;8.10;50.30;;;;;;5053511;28;20696;-57
2023/03/09 08:07:49;;;;;;;7.60;4.73;;;8.00;50.30;;;;;;5053450;28;20189;-53
2023/03/09 08:10:17;;;;;;;6.73;5.93;;;8.00;50.20;;;;;;5053546;28;20414;-53
2023/03/09 08:12:47;;;;;;;12.57;5.82;;;8.00;50.00;;;;;;5053246;28;20495;-55
2023/03/09 08:15:13;;;;;;;6.72;5.10;;;7.90;49.80;;;;;;5053412;28;20276;-54
2023/03/09 08:17:39;;;;;;;7.77;6.13;;;7.90;50.20;;;;;;5053420;28;20685;-56
2023/03/09 08:20:08;;;;;;;6.73;5.20;;;7.80;50.20;;;;;;5053253;28;20776;-53
2023/03/09 08:22:36;;;;;;;6.50;4.93;;;7.80;50.20;;;;;;5053215;28;20178;-54
2023/03/09 08:25:03;;;;;;;5.53;4.90;;;7.70;50.00;;;;;;5052900;28;20700;-57
2023/03/09 08:27:29;;;;;;;8.27;5.47;;;7.60;50.00;;;;;;5053076;28;20238;-55
2023/03/09 08:29:55;;;;;;;6.47;4.95;;;7.40;50.00;;;;;;5053069;28;20244;-53
2023/03/09 08:32:22;;;;;;;7.60;5.03;;;7.40;50.50;;;;;;5053091;28;20313;-58
2023/03/09 08:34:48;;;;;;;7.22;4.90;;;7.40;50.60;;;;;;5052689;28;20765;-54
2023/03/09 08:37:14;;;;;;;8.80;7.07;;;7.40;50.60;;;;;;5053232;28;20192;-55
2023/03/09 08:39:40;;;;;;;7.50;5.70;;;7.50;51.20;;;;;;5052701;28;20775;-56
2023/03/09 08:42:06;;;;;;;8.57;5.37;;;7.50;50.30;;;;;;5052922;28;20173;-55
2023/03/09 08:44:32;;;;;;;8.05;5.72;;;7.60;50.30;;;;;;5052378;28;20201;-53
2023/03/09 08:46:57;;;;;;;9.07;5.97;;;7.60;50.00;;;;;;5052609;28;20209;-57
2023/03/09 08:49:23;;;;;;;6.10;4.77;;;7.60;50.10;;;;;;5052821;28;20336;-53
2023/03/09 08:51:50;;;;;;;8.37;5.73;;;7.60;49.80;;;;;;5052749;28;20181;-52
2023/03/09 08:54:15;;;;;;;10.25;6.57;;;7.60;49.80;;;;;;5052310;28;20527;-57
2023/03/09 08:56:41;;;;;;;9.50;6.20;;;7.60;49.80;;;;;;5052157;28;20173;-58
2023/03/09 08:59:07;;;;;;;13.30;6.10;;;7.60;49.70;;;;;;5052547;28;20174;-53
2023/03/09 09:01:32;;;;;;;10.50;5.77;;;7.60;49.70;;;;;;5052756;28;20184;-52
2023/03/09 09:03:58;;;;;;;11.47;6.07;;;7.70;50.00;;;;;;5052224;28;20224;-59
2023/03/09 09:06:24;;;;;;;8.50;5.60;;;7.70;49.90;;;;;;5052706;28;20243;-54
2023/03/09 09:08:50;;;;;;;10.73;7.13;;;7.70;49.30;;;;;;5051098;28;20659;-58
2023/03/09 09:11:16;;;;;;;9.90;7.40;;;7.60;49.70;;;;;;5052474;28;20200;-54
2023/03/09 09:13:43;;;;;;;8.93;6.07;;;7.60;49.70;;;;;;5052008;28;20806;-58
2023/03/09 09:16:10;;;;;;;9.77;6.93;;;7.60;49.90;;;;;;5052291;28;20298;-59
2023/03/09 09:18:37;;;;;;;9.27;5.90;;;7.70;49.90;;;;;;5052267;28;20169;-54
2023/03/09 09:21:07;;;;;;;10.23;6.32;;;7.70;49.70;;;;;;5052301;28;20177;-53
2023/03/09 09:23:32;;;;;;;12.25;7.80;;;7.80;49.60;;;;;;5051843;28;20277;-58
2023/03/09 09:25:58;;;;;;;11.63;7.50;;;7.80;50.10;;;;;;5052114;28;20794;-58
2023/03/09 09:28:24;;;;;;;10.70;6.50;;;7.80;48.80;;;;;;5052111;28;20168;-53
2023/03/09 09:30:54;;;;;;;10.23;6.87;;;7.80;49.20;;;;;;5052187;28;20171;-59
2023/03/09 09:33:20;;;;;;;11.50;7.78;;;7.80;49.50;;;;;;5051755;28;20616;-56
2023/03/09 09:36:09;;;;;;;11.57;7.60;;;7.90;49.30;;;;;;5052016;28;20172;-53
2023/03/09 09:38:34;;;;;;;10.88;6.63;;;8.00;49.30;;;;;;5052045;28;20165;-58
2023/03/09 09:41:07;;;;;;;7.80;5.90;;;7.90;49.10;;;;;;5052011;28;20183;-52
2023/03/09 09:43:34;;;;;;;11.02;6.90;;;8.00;49.40;;;;;;5051627;28;20423;-54
2023/03/09 09:46:02;;;;;;;10.88;6.47;;;8.10;49.60;;;;;;5050627;28;22078;-57
2023/03/09 09:48:28;;;;;;;10.95;7.07;;;8.10;49.20;;;;;;5052052;28;20176;-52
2023/03/09 09:51:18;;;;;;;14.38;7.30;;;8.10;49.00;;;;;;5052157;28;20187;-53
2023/03/09 09:53:56;;;;;;;9.65;6.50;;;8.20;49.20;;;;;;5051607;28;20191;-58
2023/03/09 09:56:35;;;;;;;9.93;6.15;;;8.20;49.10;;;;;;5052221;28;20169;-53
2023/03/09 09:59:05;;;;;;;9.25;6.28;;;8.20;48.70;;;;;;5051688;28;20153;-57
2023/03/09 10:02:05;;;;;;;12.07;7.00;;;8.00;48.60;;;;;;5051837;28;20542;-55
2023/03/09 10:04:54;;;;;;;14.60;8.07;;;8.20;49.10;;;;;;5051464;28;20200;-57
2023/03/09 10:07:23;;;;;;;11.60;6.90;;;8.20;49.00;;;;;;5051686;28;20273;-56
2023/03/09 10:09:57;;;;;;;11.98;7.68;;;8.30;49.40;;;;;;5055755;28;20169;-57
2023/03/09 10:12:23;;;;;;;14.27;8.70;;;8.40;49.10;;;;;;5055703;28;20176;-53
2023/03/09 10:15:00;;;;;;;11.90;7.47;;;8.40;49.10;;;;;;5055383;28;20268;-54
2023/03/09 10:17:41;;;;;;;10.45;7.45;;;8.50;49.10;;;;;;5055907;28;20161;-59
2023/03/09 10:20:21;;;;;;;11.35;7.28;;;8.60;49.20;;;;;;5055643;28;20637;-54
2023/03/09 10:22:50;;;;;;;8.73;6.43;;;8.70;49.20;;;;;;5055556;28;20198;-57
2023/03/09 10:25:20;;;;;;;10.25;8.18;;;8.80;49.20;;;;;;5055310;28;20203;-59
2023/03/09 10:27:45;;;;;;;11.70;7.22;;;8.90;49.10;;;;;;5055236;28;20257;-54
2023/03/09 10:30:20;;;;;;;14.60;7.20;;;9.10;49.20;;;;;;5055622;28;20183;-52
2023/03/09 10:32:45;;;;;;;12.52;7.65;;;9.10;49.00;;;;;;5055630;28;20253;-53
2023/03/09 10:35:20;;;;;;;13.20;7.73;;;9.30;49.00;;;;;;5055177;28;20267;-56
2023/03/09 10:37:49;;;;;;;8.52;5.85;;;9.40;48.40;;;;;;5055356;28;20216;-54
2023/03/09 10:40:20;;;;;;;10.85;7.20;;;9.40;49.20;;;;;;5055441;28;20407;-58
2023/03/09 10:42:46;;;;;;;11.93;6.70;;;9.40;48.40;;;;;;5054931;28;20173;-55
2023/03/09 10:45:12;;;;;;;12.37;8.07;;;9.50;48.30;;;;;;5054995;28;20553;-54
2023/03/09 10:47:52;;;;;;;11.20;8.20;;;9.50;48.20;;;;;;5054840;28;20456;-54
2023/03/09 10:50:19;;;;;;;10.68;6.93;;;9.50;47.80;;;;;;5055360;28;20161;-56
2023/03/09 10:52:45;;;;;;;12.73;8.32;;;9.40;48.00;;;;;;5054795;28;20863;-53
2023/03/09 10:55:29;;;;;;;11.15;7.68;;;9.50;48.30;;;;;;5054691;28;20246;-55
2023/03/09 10:58:14;;;;;;;10.20;6.22;;;9.60;48.10;;;;;;5054167;28;20718;-54
2023/03/09 11:00:56;;;;;;;10.13;8.25;;;9.60;47.60;;;;;;5054736;28;20241;-56
2023/03/09 11:03:25;;;;;;;8.32;6.50;;;9.60;48.00;;;;;;5054717;28;20357;-53
2023/03/09 11:05:51;;;;;;;10.95;7.25;;;9.70;48.30;;;;;;5055311;28;20234;-58
2023/03/09 11:08:27;;;;;;;10.37;6.73;;;9.70;47.70;;;;;;5054968;28;20171;-54
2023/03/09 11:11:19;;;;;;;10.98;7.88;;;9.70;47.50;;;;;;5054941;28;20433;-58
2023/03/09 11:13:46;;;;;;;13.15;7.07;;;9.70;47.10;;;;;;5054281;28;20199;-53
2023/03/09 11:16:27;;;;;;;10.68;7.80;;;9.70;47.60;;;;;;5054595;28;20251;-57
2023/03/09 11:19:11;;;;;;;10.43;7.65;;;9.80;48.00;;;;;;5054046;28;20179;-53
2023/03/09 11:21:40;;;;;;;8.90;6.78;;;9.70;47.50;;;;;;5054408;28;20537;-54
2023/03/09 11:24:08;;;;;;;10.60;7.57;;;9.70;47.70;;;;;;5054251;28;20287;-53
2023/03/09 11:26:44;;;;;;;12.40;8.30;;;9.70;47.90;;;;;;5054154;28;20248;-57
2023/03/09 11:29:55;;;;;;;11.75;8.63;;;9.80;48.10;;;;;;5054646;28;20180;-54
2023/03/09 11:32:21;;;;;;;10.88;6.85;;;9.80;48.00;;;;;;5051899;28;20210;-57
2023/03/09 11:34:48;;;;;;;14.43;8.35;;;9.80;48.70;;;;;;5051622;28;20215;-54
2023/03/09 11:37:16;;;;;;;11.98;7.80;;;9.70;48.10;;;;;;5051906;28;20593;-56
2023/03/09 11:39:51;;;;;;;11.73;8.20;;;9.80;48.00;;;;;;5051801;28;20245;-52
2023/03/09 11:42:28;;;;;;;13.38;8.50;;;9.80;48.20;;;;;;5051558;28;20241;-52
2023/03/09 11:44:54;;;;;;;12.00;7.80;;;9.80;48.70;;;;;;5051488;28;20199;-58
2023/03/09 11:47:41;;;;;;;13.32;8.63;;;9.80;48.30;;;;;;5051395;28;20230;-55
2023/03/09 11:50:19;;;;;;;11.25;8.00;;;9.80;49.10;;;;;;5051614;28;20212;-57
2023/03/09 11:53:06;;;;;;;9.48;7.25;;;9.90;48.60;;;;;;5051489;28;20258;-52
2023/03/09 11:55:42;;;;;;;12.82;7.90;;;10.00;48.70;;;;;;5051255;28;20176;-53
2023/03/09 11:58:18;;;;;;;10.15;7.45;;;10.00;48.50;;;;;;5051478;28;20685;-54
2023/03/09 12:00:48;;;;;;;11.98;7.60;;;10.10;48.60;;;;;;5051554;28;20636;-53
2023/03/09 12:03:16;;;;;;;10.38;7.93;;;10.10;48.60;;;;;;5052315;28;20648;-57
2023/03/09 12:06:00;;;;;;;12.25;7.68;;;10.10;48.40;;;;;;5053586;28;20169;-53
2023/03/09 12:08:39;;;;;;;11.18;7.47;;;10.10;48.60;;;;;;5053825;28;20165;-58
2023/03/09 12:11:23;;;;;;;11.70;7.45;;;10.00;48.60;;;;;;5053572;28;20169;-55
2023/03/09 12:14:03;;;;;;;12.48;7.90;;;10.10;48.60;;;;;;5053204;28;20200;-53
2023/03/09 12:16:35;;;;;;;10.45;7.65;;;10.10;48.60;;;;;;5053351;28;20663;-57
2023/03/09 12:19:10;;;;;;;10.93;7.93;;;10.10;48.60;;;;;;5053592;28;20223;-54
2023/03/09 12:21:42;;;;;;;9.55;7.35;;;10.10;48.50;;;;;;5053287;28;20255;-57
2023/03/09 12:24:19;;;;;;;11.38;7.35;;;10.10;48.50;;;;;;5052968;28;20192;-53
2023/03/09 12:26:56;;;;;;;12.60;8.57;;;10.10;48.40;;;;;;5052999;28;20207;-57
2023/03/09 12:29:27;;;;;;;12.95;7.35;;;10.10;48.50;;;;;;5053204;28;20185;-53
2023/03/09 12:32:23;;;;;;;12.43;7.65;;;10.10;48.60;;;;;;5052262;28;20164;-53
2023/03/09 12:34:57;;;;;;;10.23;7.97;;;10.10;48.60;;;;;;5052843;28;20185;-54
2023/03/09 12:37:35;;;;;;;11.05;7.25;;;10.10;48.60;;;;;;5053245;28;20183;-54
2023/03/09 12:40:13;;;;;;;8.55;6.90;;;10.10;48.60;;;;;;5052882;28;20172;-53
2023/03/09 12:42:39;;;;;;;13.02;7.93;;;10.10;48.50;;;;;;5052909;28;20173;-54
2023/03/09 12:45:11;;;;;;;9.87;7.27;;;10.10;48.60;;;;;;5052609;28;20217;-56
2023/03/09 12:47:45;;;;;;;8.27;6.35;;;10.10;48.50;;;;;;5052506;28;20202;-53
2023/03/09 12:50:42;;;;;;;10.07;6.65;;;10.20;48.70;;;;;;5052813;28;20204;-58
2023/03/09 12:53:14;;;;;;;9.25;7.20;;;10.20;48.70;;;;;;5051931;28;20183;-54
2023/03/09 12:55:40;;;;;;;9.70;6.47;;;10.30;48.80;;;;;;5052683;28;20184;-55